Naples, Kentucky
Current Conditions -  °F | °C
As of 6:51 AM on Friday 28 Nov 2014 (Local Time) from KHTS Reporting Station
Overcast Overcast  
Wind Chill: 27°   Ceiling: 3600
Heat Index: 27°   Visibility: 10mi
Dew Point: 20°   Wind: 3mph
Humidity: 75%   Direction: 330°NNW
Pressure: 30.38"   Gusts: NA
Location:  38.4314°N, 82.6662°W
Report Text: KHTS 281151Z 33003KT 10SM FEW027 OVC036 M03/M07 A3038 RMK AO2 SLP297 60000 T10281067 11011 21028 51007
Loading
Personal Weather Stations






























Interactive Weather Map New forecast layout! Learn more

10-Day Weather Forecast

Advertisements
Track Severe Weather on mobile